createdAt,value
2022-10-21T00:00:34.320Z,101275.78
2022-10-21T00:03:01.175Z,101268.66
2022-10-21T00:05:27.762Z,101278.28
2022-10-21T00:07:54.351Z,101289.69
2022-10-21T00:10:21.012Z,101283.56
2022-10-21T00:12:47.625Z,101288.88
2022-10-21T00:15:14.238Z,101280.94
2022-10-21T00:17:43.094Z,101270.31
2022-10-21T00:20:12.372Z,101260.88
2022-10-21T00:22:39.509Z,101257.22
2022-10-21T00:25:06.713Z,101268.47
2022-10-21T00:27:33.507Z,101274.63
2022-10-21T00:30:00.198Z,101278.13
2022-10-21T00:32:26.857Z,101281.56
2022-10-21T00:34:53.480Z,101272.63
2022-10-21T00:37:20.073Z,101272.63
2022-10-21T00:39:46.706Z,101275.28
2022-10-21T00:42:19.911Z,101266.50
2022-10-21T00:45:05.012Z,101255.53
2022-10-21T00:47:34.299Z,101253.91
2022-10-21T00:50:02.547Z,101254.72
2022-10-21T00:52:30.721Z,101254.72
2022-10-21T00:54:58.667Z,101238.81
2022-10-21T00:57:25.862Z,101248.59
2022-10-21T00:59:56.469Z,101241.66
2022-10-21T01:02:23.371Z,101231.03
2022-10-21T01:04:54.154Z,101222.25
2022-10-21T01:07:20.720Z,101217.94
2022-10-21T01:09:47.343Z,101221.59
2022-10-21T01:12:39.513Z,101214.50
2022-10-21T01:15:33.325Z,101220.75
2022-10-21T01:18:21.358Z,101215.47
2022-10-21T01:21:07.080Z,101218.09
2022-10-21T01:23:39.924Z,101210.31
2022-10-21T01:26:16.608Z,101210.50
2022-10-21T01:29:16.954Z,101215.81
2022-10-21T01:31:47.697Z,101230.88
2022-10-21T01:34:14.230Z,101230.03
2022-10-21T01:36:42.385Z,101233.53
2022-10-21T01:39:19.368Z,101235.34
2022-10-21T01:41:55.773Z,101240.66
2022-10-21T01:44:44.161Z,101229.41
2022-10-21T01:47:21.052Z,101212.81
2022-10-21T01:50:05.361Z,101207.34
2022-10-21T01:52:32.175Z,101195.94
2022-10-21T01:55:01.542Z,101180.84
2022-10-21T01:57:31.373Z,101178.19
2022-10-21T01:59:58.462Z,101179.69
2022-10-21T02:02:28.474Z,101172.72
2022-10-21T02:04:55.653Z,101161.13
2022-10-21T02:07:22.236Z,101175.06
2022-10-21T02:09:48.815Z,101165.25
2022-10-21T02:12:16.499Z,101154.66
2022-10-21T02:14:46.590Z,101163.09
2022-10-21T02:17:16.592Z,101154.31
2022-10-21T02:19:43.727Z,101133.09
2022-10-21T02:22:13.153Z,101131.28
2022-10-21T02:24:47.320Z,101122.50
2022-10-21T02:27:13.914Z,101113.75
2022-10-21T02:29:42.727Z,101117.03
2022-10-21T02:32:18.201Z,101102.94
2022-10-21T02:35:09.217Z,101095.19
2022-10-21T02:37:45.984Z,101082.09
2022-10-21T02:40:19.842Z,101092.69
2022-10-21T02:42:50.890Z,101084.91
2022-10-21T02:45:18.389Z,101081.25
2022-10-21T02:47:47.750Z,101077.78
2022-10-21T02:50:14.551Z,101084.91
2022-10-21T02:52:41.149Z,101092.88
2022-10-21T02:55:08.201Z,101088.56
2022-10-21T02:57:34.830Z,101088.56
2022-10-21T03:00:01.451Z,101088.75
2022-10-21T03:02:28.034Z,101086.09
2022-10-21T03:04:54.598Z,101085.25
2022-10-21T03:07:21.277Z,101083.59
2022-10-21T03:09:47.863Z,101087.91
2022-10-21T03:12:14.608Z,101072.34
2022-10-21T03:14:41.255Z,101075.81
2022-10-21T03:17:07.821Z,101074.97
2022-10-21T03:19:34.410Z,101071.53
2022-10-21T03:22:01.037Z,101066.22
2022-10-21T03:24:29.059Z,101074.19
2022-10-21T03:26:56.413Z,101070.69
2022-10-21T03:29:23.002Z,101066.41
2022-10-21T03:31:49.608Z,101062.91
2022-10-21T03:34:16.299Z,101060.09
2022-10-21T03:36:42.887Z,101059.91
2022-10-21T03:39:11.234Z,101054.63
2022-10-21T03:41:37.818Z,101065.06
2022-10-21T03:44:04.424Z,101070.19
2022-10-21T03:46:31.127Z,101065.69
2022-10-21T03:49:02.727Z,101070.66
2022-10-21T03:51:32.373Z,101062.69
2022-10-21T03:53:58.978Z,101064.34
2022-10-21T03:56:25.607Z,101062.53
2022-10-21T03:58:56.257Z,101070.31
2022-10-21T04:01:25.162Z,101068.69
2022-10-21T04:03:51.758Z,101058.88
2022-10-21T04:06:18.351Z,101052.78
2022-10-21T04:08:45.025Z,101051.09
2022-10-21T04:11:11.776Z,101048.44
2022-10-21T04:13:38.389Z,101041.31
2022-10-21T04:16:07.862Z,101045.78
2022-10-21T04:18:34.695Z,101042.50
2022-10-21T04:21:01.453Z,101041.66
2022-10-21T04:23:28.053Z,101033.06
2022-10-21T04:25:54.650Z,101017.16
2022-10-21T04:28:21.340Z,101013.03
2022-10-21T04:30:49.995Z,101011.19
2022-10-21T04:33:16.599Z,101008.56
2022-10-21T04:35:43.237Z,101015.69
2022-10-21T04:38:10.023Z,101014.84
2022-10-21T04:40:36.690Z,101011.56
2022-10-21T04:43:03.635Z,100999.97
2022-10-21T04:45:30.241Z,100992.00
2022-10-21T04:47:56.820Z,101000.97
2022-10-21T04:50:23.574Z,100998.31
2022-10-21T04:52:50.151Z,100978.09
2022-10-21T04:55:16.800Z,100986.03
2022-10-21T04:57:43.464Z,100982.59
2022-10-21T05:00:10.886Z,100968.50
2022-10-21T05:02:37.769Z,100974.63
2022-10-21T05:05:05.045Z,100967.69
2022-10-21T05:07:31.615Z,100962.38
2022-10-21T05:09:58.209Z,100957.88
2022-10-21T05:12:24.851Z,100948.28
2022-10-21T05:14:51.514Z,100942.81
2022-10-21T05:17:18.091Z,100947.13
2022-10-21T05:19:44.806Z,100938.16
2022-10-21T05:22:11.966Z,100934.50
2022-10-21T05:24:38.591Z,100935.16
2022-10-21T05:27:05.460Z,100941.09
2022-10-21T05:29:32.041Z,100943.75
2022-10-21T05:31:58.646Z,100942.78
2022-10-21T05:34:25.232Z,100955.81
2022-10-21T05:36:51.828Z,100952.38
2022-10-21T05:39:18.396Z,100943.41
2022-10-21T05:41:47.772Z,100949.56
2022-10-21T05:44:15.187Z,100943.41
2022-10-21T05:46:41.795Z,100942.56
2022-10-21T05:49:08.981Z,100933.66
2022-10-21T05:51:35.567Z,100942.41
2022-10-21T05:54:03.985Z,100943.41
2022-10-21T05:56:30.563Z,100938.09
2022-10-21T05:58:57.171Z,100941.78
2022-10-21T06:01:23.854Z,100941.09
2022-10-21T06:03:50.561Z,100940.47
2022-10-21T06:06:17.166Z,100940.47
2022-10-21T06:08:43.896Z,100943.13
2022-10-21T06:11:15.767Z,100924.91
2022-10-21T06:13:42.512Z,100927.38
2022-10-21T06:16:10.247Z,100921.25
2022-10-21T06:18:37.093Z,100918.81
2022-10-21T06:21:04.700Z,100928.56
2022-10-21T06:23:31.613Z,100940.81
2022-10-21T06:26:18.480Z,100947.97
2022-10-21T06:28:45.339Z,100955.06
2022-10-21T06:31:21.548Z,100959.53
2022-10-21T06:33:48.178Z,100949.94
2022-10-21T06:36:15.514Z,100965.03
2022-10-21T06:38:42.403Z,100970.97
2022-10-21T06:41:13.273Z,100958.72
2022-10-21T06:43:41.176Z,100953.44
2022-10-21T06:46:10.929Z,100957.72
2022-10-21T06:48:37.895Z,100955.06
2022-10-21T06:51:16.239Z,100963.66
2022-10-21T06:53:43.642Z,100957.56
2022-10-21T06:56:13.023Z,100955.53
2022-10-21T06:58:43.355Z,100961.69
2022-10-21T07:01:27.216Z,100958.19
2022-10-21T07:03:58.829Z,100956.19
2022-10-21T07:06:25.781Z,100959.66
2022-10-21T07:08:59.715Z,100966.63
2022-10-21T07:11:27.218Z,100970.94
2022-10-21T07:13:54.243Z,100970.94
2022-10-21T07:16:25.970Z,100976.88
2022-10-21T07:18:53.129Z,100982.34
2022-10-21T07:21:22.405Z,100970.94
2022-10-21T07:23:51.404Z,100965.63
2022-10-21T07:26:22.314Z,100957.00
2022-10-21T07:28:49.221Z,100964.63
2022-10-21T07:31:17.766Z,100966.25
2022-10-21T07:33:44.385Z,100971.56
2022-10-21T07:36:25.229Z,100976.06
2022-10-21T07:38:53.139Z,100967.44
2022-10-21T07:41:28.369Z,100968.28
2022-10-21T07:43:55.195Z,100960.50
2022-10-21T07:46:22.358Z,100950.91
2022-10-21T07:48:49.674Z,100953.56
2022-10-21T07:51:19.380Z,100963.31
2022-10-21T07:53:46.070Z,100956.38
2022-10-21T07:56:15.584Z,100949.44
2022-10-21T07:58:43.106Z,100952.25
2022-10-21T08:01:10.696Z,100954.06
2022-10-21T08:03:38.125Z,100948.75
2022-10-21T08:06:05.874Z,100946.94
2022-10-21T08:08:32.701Z,100943.47
2022-10-21T08:10:59.325Z,100951.41
2022-10-21T08:13:26.100Z,100948.75
2022-10-21T08:15:54.189Z,100943.47
2022-10-21T08:18:21.501Z,100949.59
2022-10-21T08:20:49.439Z,100938.81
2022-10-21T08:23:17.981Z,100941.47
2022-10-21T08:26:03.110Z,100930.88
2022-10-21T08:28:31.014Z,100923.56
2022-10-21T08:31:08.102Z,100914.44
2022-10-21T08:33:34.909Z,100915.25
2022-10-21T08:36:06.297Z,100915.88
2022-10-21T08:38:33.264Z,100897.34
2022-10-21T08:40:59.996Z,100907.94
2022-10-21T08:43:31.673Z,100907.78
2022-10-21T08:46:17.822Z,100917.56
2022-10-21T08:48:51.548Z,100918.19
2022-10-21T08:51:40.115Z,100906.97
2022-10-21T08:54:13.962Z,100906.13
2022-10-21T08:56:40.656Z,100909.41
2022-10-21T08:59:19.874Z,100900.66
2022-10-21T09:01:57.066Z,100891.06
2022-10-21T09:04:37.204Z,100887.56
2022-10-21T09:07:06.722Z,100893.50
2022-10-21T09:09:59.418Z,100882.91
2022-10-21T09:12:37.957Z,100880.06
2022-10-21T09:15:25.033Z,100876.41
2022-10-21T09:18:37.970Z,100869.31
2022-10-21T09:21:23.777Z,100866.47
2022-10-21T09:24:07.040Z,100873.41
2022-10-21T09:26:41.421Z,100864.44
2022-10-21T09:29:35.082Z,100869.97
2022-10-21T09:32:12.900Z,100860.34
2022-10-21T09:34:59.083Z,100866.47
2022-10-21T09:37:42.304Z,100868.13
2022-10-21T09:40:19.501Z,100867.94
2022-10-21T09:42:49.002Z,100870.59
2022-10-21T09:45:21.469Z,100876.72
2022-10-21T09:47:56.201Z,100875.91
2022-10-21T09:50:22.962Z,100871.44
2022-10-21T09:53:05.061Z,100871.44
2022-10-21T09:55:31.890Z,100876.72
2022-10-21T09:58:01.493Z,100878.53
2022-10-21T10:00:47.698Z,100875.06
2022-10-21T10:03:30.230Z,100884.47
2022-10-21T10:05:57.131Z,100884.47
2022-10-21T10:08:44.699Z,100868.56
2022-10-21T10:11:13.375Z,100870.25
2022-10-21T10:13:46.252Z,100869.25
2022-10-21T10:16:24.844Z,100860.28
2022-10-21T10:18:53.656Z,100853.97
2022-10-21T10:21:21.998Z,100844.19
2022-10-21T10:23:55.090Z,100849.50
2022-10-21T10:26:29.242Z,100840.69
2022-10-21T10:29:08.605Z,100834.22
2022-10-21T10:31:36.353Z,100837.69
2022-10-21T10:34:19.696Z,100844.47
2022-10-21T10:36:48.272Z,100830.84
2022-10-21T10:39:35.744Z,100835.81
2022-10-21T10:42:03.151Z,100834.63
2022-10-21T10:44:36.586Z,100835.09
2022-10-21T10:47:04.731Z,100837.00
2022-10-21T10:49:38.153Z,100829.03
2022-10-21T10:52:06.629Z,100822.94
2022-10-21T10:54:33.386Z,100813.50
2022-10-21T10:56:59.901Z,100820.44
2022-10-21T10:59:40.565Z,100820.44
2022-10-21T11:02:10.185Z,100816.16
2022-10-21T11:05:13.355Z,100806.91
2022-10-21T11:07:44.554Z,100808.91
2022-10-21T11:10:24.166Z,100801.97
2022-10-21T11:12:50.789Z,100795.03
2022-10-21T11:15:17.499Z,100795.03
2022-10-21T11:17:52.855Z,100805.63
2022-10-21T11:20:49.561Z,100804.00
2022-10-21T11:23:35.085Z,100798.69
2022-10-21T11:26:15.662Z,100796.22
2022-10-21T11:28:50.785Z,100799.50
2022-10-21T11:32:11.573Z,100805.63
2022-10-21T11:34:50.736Z,100793.56
2022-10-21T11:37:44.271Z,100793.38
2022-10-21T11:40:23.052Z,100793.38
2022-10-21T11:42:51.697Z,100795.19
2022-10-21T11:45:39.594Z,100792.53
2022-10-21T11:48:09.058Z,100792.53
2022-10-21T11:50:50.710Z,100793.38
2022-10-21T11:53:26.238Z,100799.66
2022-10-21T11:56:08.300Z,100799.66
2022-10-21T11:59:12.307Z,100798.69
2022-10-21T12:01:48.279Z,100798.69
2022-10-21T12:04:49.308Z,100793.38
2022-10-21T12:07:39.963Z,100802.31
2022-10-21T12:10:32.253Z,100800.50
2022-10-21T12:13:16.000Z,100802.31
2022-10-21T12:15:49.660Z,100795.38
2022-10-21T12:18:20.049Z,100789.22
2022-10-21T12:20:49.069Z,100792.72
2022-10-21T12:23:21.200Z,100801.50
2022-10-21T12:25:56.589Z,100800.69
2022-10-21T12:28:33.202Z,100799.03
2022-10-21T12:31:23.482Z,100805.16
2022-10-21T12:33:50.271Z,100793.72
2022-10-21T12:36:19.874Z,100786.78
2022-10-21T12:38:58.140Z,100781.50
2022-10-21T12:41:24.735Z,100776.97
2022-10-21T12:44:05.102Z,100775.34
2022-10-21T12:46:43.454Z,100770.03
2022-10-21T12:49:19.457Z,100778.84
2022-10-21T12:51:59.164Z,100775.34
2022-10-21T12:54:30.516Z,100782.47
2022-10-21T12:57:06.181Z,100778.19
2022-10-21T12:59:36.258Z,100779.00
2022-10-21T13:02:05.851Z,100774.50
2022-10-21T13:04:32.375Z,100782.47
2022-10-21T13:07:12.975Z,100777.16
2022-10-21T13:10:08.112Z,100770.88
2022-10-21T13:12:34.716Z,100770.88
2022-10-21T13:15:20.050Z,100767.22
2022-10-21T13:17:53.407Z,100756.44
2022-10-21T13:20:20.113Z,100770.31
2022-10-21T13:22:50.538Z,100758.91
2022-10-21T13:25:26.411Z,100760.38
2022-10-21T13:28:07.986Z,100749.28
2022-10-21T13:30:36.509Z,100751.75
2022-10-21T13:33:04.854Z,100750.94
2022-10-21T13:35:43.440Z,100759.72
2022-10-21T13:38:23.143Z,100760.72
2022-10-21T13:41:23.630Z,100765.19
2022-10-21T13:43:55.532Z,100764.56
2022-10-21T13:46:31.082Z,100760.91
2022-10-21T13:49:01.440Z,100762.53
2022-10-21T13:51:33.173Z,100765.38
2022-10-21T13:54:06.343Z,100762.72
2022-10-21T13:56:35.267Z,100767.22
2022-10-21T13:59:02.194Z,100767.38
2022-10-21T14:01:53.016Z,100774.34
2022-10-21T14:04:30.981Z,100780.47
2022-10-21T14:07:00.977Z,100774.50
2022-10-21T14:09:31.170Z,100769.03
2022-10-21T14:12:03.802Z,100756.16
2022-10-21T14:14:32.447Z,100770.88
2022-10-21T14:17:20.251Z,100762.09
2022-10-21T14:19:51.669Z,100763.91
2022-10-21T14:22:20.999Z,100762.25
2022-10-21T14:24:52.677Z,100754.13
2022-10-21T14:27:28.556Z,100753.28
2022-10-21T14:29:56.651Z,100748.00
2022-10-21T14:32:25.711Z,100748.00
2022-10-21T14:34:58.309Z,100746.34
2022-10-21T14:37:24.887Z,100746.34
2022-10-21T14:39:51.683Z,100740.03
2022-10-21T14:42:23.594Z,100748.81
2022-10-21T14:44:52.040Z,100739.22
2022-10-21T14:47:26.944Z,100736.59
2022-10-21T14:50:00.829Z,100735.75
2022-10-21T14:52:29.930Z,100731.47
2022-10-21T14:55:00.506Z,100725.13
2022-10-21T14:57:45.801Z,100725.97
2022-10-21T15:00:30.943Z,100720.66
2022-10-21T15:02:59.095Z,100721.47
2022-10-21T15:05:34.554Z,100710.06
2022-10-21T15:08:19.494Z,100708.22
2022-10-21T15:11:08.976Z,100718.81
2022-10-21T15:13:35.639Z,100714.34
2022-10-21T15:16:04.248Z,100709.06
2022-10-21T15:18:41.014Z,100708.88
2022-10-21T15:21:13.077Z,100701.94
2022-10-21T15:23:43.824Z,100708.22
2022-10-21T15:26:19.334Z,100709.88
2022-10-21T15:28:45.908Z,100711.72
2022-10-21T15:31:38.690Z,100703.94
2022-10-21T15:34:06.014Z,100707.41
2022-10-21T15:36:32.601Z,100705.56
2022-10-21T15:38:59.188Z,100705.56
2022-10-21T15:41:26.277Z,100706.56
2022-10-21T15:44:17.441Z,100697.81
2022-10-21T15:46:47.206Z,100697.81
2022-10-21T15:49:24.393Z,100702.28
2022-10-21T15:51:51.382Z,100698.81
2022-10-21T15:54:18.794Z,100704.09
2022-10-21T15:56:48.153Z,100700.66
2022-10-21T15:59:24.033Z,100703.31
2022-10-21T16:01:51.383Z,100708.59
2022-10-21T16:04:18.494Z,100705.28
2022-10-21T16:06:48.057Z,100704.28
2022-10-21T16:09:20.525Z,100705.13
2022-10-21T16:11:59.445Z,100716.56
2022-10-21T16:14:29.511Z,100705.94
2022-10-21T16:16:59.749Z,100709.41
2022-10-21T16:19:26.843Z,100711.25
2022-10-21T16:21:53.438Z,100705.13
2022-10-21T16:24:20.038Z,100698.97
2022-10-21T16:26:48.611Z,100700.66
2022-10-21T16:29:24.146Z,100706.75
2022-10-21T16:31:51.240Z,100705.94
2022-10-21T16:34:18.202Z,100704.94
2022-10-21T16:36:44.878Z,100707.59
2022-10-21T16:39:22.115Z,100711.06
2022-10-21T16:41:48.805Z,100719.84
2022-10-21T16:44:15.438Z,100717.38
2022-10-21T16:46:48.718Z,100723.50
2022-10-21T16:49:18.648Z,100727.78
2022-10-21T16:51:48.234Z,100728.63
2022-10-21T16:54:15.565Z,100729.44
2022-10-21T16:56:42.186Z,100731.28
2022-10-21T16:59:08.776Z,100731.28
2022-10-21T17:01:35.667Z,100736.59
2022-10-21T17:04:02.407Z,100741.06
2022-10-21T17:06:28.985Z,100736.59
2022-10-21T17:08:56.236Z,100740.25
2022-10-21T17:11:35.007Z,100739.22
2022-10-21T17:14:03.186Z,100734.94
2022-10-21T17:16:30.180Z,100740.25
2022-10-21T17:18:56.786Z,100746.34
2022-10-21T17:21:28.898Z,100753.28
2022-10-21T17:23:56.325Z,100751.66
2022-10-21T17:26:23.534Z,100755.31
2022-10-21T17:28:50.585Z,100755.31
2022-10-21T17:31:19.542Z,100753.69
2022-10-21T17:33:47.292Z,100771.22
2022-10-21T17:36:15.103Z,100754.47
2022-10-21T17:38:42.150Z,100762.63
2022-10-21T17:41:09.784Z,100757.13
2022-10-21T17:43:36.433Z,100764.28
2022-10-21T17:46:03.788Z,100759.00
2022-10-21T17:48:31.478Z,100758.16
2022-10-21T17:50:59.844Z,100759.00
2022-10-21T17:53:27.829Z,100753.69
2022-10-21T17:56:06.398Z,100740.59
2022-10-21T17:58:33.640Z,100747.38
2022-10-21T18:01:00.527Z,100738.75
2022-10-21T18:03:28.514Z,100742.25
2022-10-21T18:05:56.138Z,100746.53
2022-10-21T18:08:23.409Z,100735.94
2022-10-21T18:10:57.557Z,100732.28
2022-10-21T18:13:26.555Z,100740.03
2022-10-21T18:15:53.929Z,100727.00
2022-10-21T18:18:22.093Z,100736.59
2022-10-21T18:20:48.870Z,100737.38
2022-10-21T18:23:15.798Z,100740.88
2022-10-21T18:25:42.647Z,100742.69
2022-10-21T18:28:09.662Z,100738.22
2022-10-21T18:30:42.386Z,100741.72
2022-10-21T18:33:09.241Z,100744.38
2022-10-21T18:35:35.821Z,100747.81
2022-10-21T18:38:02.413Z,100742.50
2022-10-21T18:40:29.013Z,100746.00
2022-10-21T18:42:55.745Z,100741.72
2022-10-21T18:45:22.735Z,100732.09
2022-10-21T18:47:51.478Z,100740.88
2022-10-21T18:50:18.196Z,100741.72
2022-10-21T18:52:44.827Z,100740.69
2022-10-21T18:55:11.434Z,100741.72
2022-10-21T18:57:38.443Z,100739.06
2022-10-21T19:00:06.631Z,100736.41
2022-10-21T19:02:33.375Z,100737.38
2022-10-21T19:05:02.032Z,100735.56
2022-10-21T19:07:29.328Z,100738.22
2022-10-21T19:09:55.974Z,100734.72
2022-10-21T19:12:23.651Z,100734.72
2022-10-21T19:14:50.796Z,100740.88
2022-10-21T19:17:17.481Z,100741.06
2022-10-21T19:19:44.100Z,100745.34
2022-10-21T19:22:10.666Z,100742.06
2022-10-21T19:24:37.321Z,100734.72
2022-10-21T19:27:04.071Z,100741.06
2022-10-21T19:29:30.702Z,100740.03
2022-10-21T19:31:57.296Z,100736.59
2022-10-21T19:34:27.510Z,100747.19
2022-10-21T19:36:54.328Z,100751.47
2022-10-21T19:39:21.056Z,100756.16
2022-10-21T19:41:47.788Z,100756.78
2022-10-21T19:44:14.656Z,100753.28
2022-10-21T19:46:41.231Z,100765.56
2022-10-21T19:49:08.966Z,100767.38
2022-10-21T19:51:36.773Z,100763.91
2022-10-21T19:54:05.328Z,100776.19
2022-10-21T19:56:34.266Z,100775.97
2022-10-21T19:59:02.800Z,100775.97
2022-10-21T20:01:29.874Z,100779.47
2022-10-21T20:03:56.569Z,100781.09
2022-10-21T20:06:29.148Z,100782.94
2022-10-21T20:08:57.644Z,100784.59
2022-10-21T20:11:25.006Z,100781.09
2022-10-21T20:13:51.990Z,100777.66
2022-10-21T20:16:24.732Z,100779.28
2022-10-21T20:18:51.450Z,100772.16
2022-10-21T20:21:18.764Z,100775.00
2022-10-21T20:23:45.515Z,100775.78
2022-10-21T20:26:12.370Z,100768.69
2022-10-21T20:28:39.023Z,100764.38
2022-10-21T20:31:10.253Z,100768.84
2022-10-21T20:33:43.531Z,100765.19
2022-10-21T20:36:32.517Z,100763.72
2022-10-21T20:39:00.208Z,100759.88
2022-10-21T20:41:30.890Z,100763.56
2022-10-21T20:43:57.542Z,100769.69
2022-10-21T20:46:25.325Z,100757.41
2022-10-21T20:48:53.587Z,100760.06
2022-10-21T20:51:29.013Z,100761.72
2022-10-21T20:54:00.092Z,100760.28
2022-10-21T20:56:32.143Z,100764.56
2022-10-21T20:58:58.906Z,100768.22
2022-10-21T21:01:28.684Z,100768.84
2022-10-21T21:03:57.914Z,100768.84
2022-10-21T21:06:24.961Z,100772.53
2022-10-21T21:09:14.756Z,100771.69
2022-10-21T21:11:38.669Z,100775.16
2022-10-21T21:14:05.261Z,100780.66
2022-10-21T21:16:31.858Z,100781.50
2022-10-21T21:19:03.618Z,100782.28
2022-10-21T21:21:31.507Z,100787.59
2022-10-21T21:23:58.637Z,100794.53
2022-10-21T21:26:31.079Z,100796.38
2022-10-21T21:28:57.985Z,100790.25
2022-10-21T21:31:25.989Z,100790.06
2022-10-21T21:33:52.827Z,100783.94
2022-10-21T21:36:20.516Z,100782.13
2022-10-21T21:38:47.728Z,100771.31
2022-10-21T21:41:16.636Z,100771.16
2022-10-21T21:43:47.609Z,100765.84
2022-10-21T21:46:22.590Z,100757.06
2022-10-21T21:49:09.468Z,100751.75
2022-10-21T21:51:36.710Z,100752.59
2022-10-21T21:54:04.897Z,100752.59
2022-10-21T21:56:31.500Z,100759.53
2022-10-21T21:58:58.593Z,100752.41
2022-10-21T22:01:28.258Z,100754.22
2022-10-21T22:03:56.077Z,100750.75
2022-10-21T22:08:58.052Z,100764.00
2022-10-21T22:11:27.207Z,100770.13
2022-10-21T22:13:53.953Z,100766.66
2022-10-21T22:16:22.285Z,100762.34
2022-10-21T22:18:48.989Z,100773.81
2022-10-21T22:21:17.429Z,100780.75
2022-10-21T22:23:44.390Z,100771.16
2022-10-21T22:26:12.146Z,100779.09
2022-10-21T22:28:39.110Z,100781.09
2022-10-21T22:31:11.797Z,100771.31
2022-10-21T22:33:38.823Z,100782.78
2022-10-21T22:36:05.894Z,100780.31
2022-10-21T22:38:32.786Z,100782.78
2022-10-21T22:41:01.261Z,100783.75
2022-10-21T22:43:28.354Z,100781.94
2022-10-21T22:46:01.208Z,100782.78
2022-10-21T22:48:41.746Z,100771.31
2022-10-21T22:51:08.375Z,100788.88
2022-10-21T22:53:36.505Z,100796.84
2022-10-21T22:56:03.303Z,100806.63
2022-10-21T22:58:29.882Z,100798.69
2022-10-21T23:00:56.784Z,100794.38
2022-10-21T23:03:23.492Z,100785.59
2022-10-21T23:05:50.146Z,100794.38
2022-10-21T23:08:17.598Z,100790.72
2022-10-21T23:10:46.756Z,100797.00
2022-10-21T23:13:13.337Z,100796.03
2022-10-21T23:15:40.174Z,100799.50
2022-10-21T23:18:06.800Z,100789.72
2022-10-21T23:20:33.447Z,100781.75
2022-10-21T23:23:00.181Z,100770.13
2022-10-21T23:25:27.176Z,100772.63
2022-10-21T23:27:54.153Z,100766.47
2022-10-21T23:30:21.286Z,100754.06
2022-10-21T23:32:47.887Z,100757.50
2022-10-21T23:35:15.523Z,100761.00
2022-10-21T23:37:42.537Z,100768.94
2022-10-21T23:40:10.270Z,100762.81
2022-10-21T23:42:41.838Z,100768.13
2022-10-21T23:45:11.142Z,100768.94
2022-10-21T23:47:39.277Z,100771.59
2022-10-21T23:50:06.766Z,100783.03
2022-10-21T23:52:33.361Z,100782.22
2022-10-21T23:54:59.958Z,100777.09
2022-10-21T23:57:26.622Z,100781.38
2022-10-21T23:59:53.284Z,100794.63
